sensor_id;sensor_type;location;lat;lon;timestamp;pressure;altitude;pressure_sealevel;temperature;humidity
5879;BME280;2965;42.640;23.370;2024-01-30T00:00:34;96444.72;;;0.34;100.00
5879;BME280;2965;42.640;23.370;2024-01-30T00:02:59;96443.75;;;0.37;100.00
5879;BME280;2965;42.640;23.370;2024-01-30T00:05:24;96450.69;;;0.35;100.00
5879;BME280;2965;42.640;23.370;2024-01-30T00:07:50;96447.59;;;0.28;100.00
5879;BME280;2965;42.640;23.370;2024-01-30T00:10:15;96450.88;;;0.32;100.00
5879;BME280;2965;42.640;23.370;2024-01-30T00:12:41;96448.72;;;0.40;100.00
5879;BME280;2965;42.640;23.370;2024-01-30T00:15:06;96448.91;;;0.37;100.00
5879;BME280;2965;42.640;23.370;2024-01-30T00:17:35;96448.72;;;0.40;100.00
5879;BME280;2965;42.640;23.370;2024-01-30T00:20:01;96457.38;;;0.39;100.00
5879;BME280;2965;42.640;23.370;2024-01-30T00:22:26;96453.47;;;0.49;100.00
5879;BME280;2965;42.640;23.370;2024-01-30T00:24:52;96460.72;;;0.41;100.00
5879;BME280;2965;42.640;23.370;2024-01-30T00:27:17;96461.91;;;0.34;100.00
5879;BME280;2965;42.640;23.370;2024-01-30T00:29:42;96461.00;;;0.35;100.00
5879;BME280;2965;42.640;23.370;2024-01-30T00:32:08;96463.28;;;0.23;100.00
5879;BME280;2965;42.640;23.370;2024-01-30T00:34:33;96469.56;;;0.18;100.00
5879;BME280;2965;42.640;23.370;2024-01-30T00:36:58;96467.34;;;0.10;100.00
5879;BME280;2965;42.640;23.370;2024-01-30T00:39:24;96460.91;;;0.19;100.00
5879;BME280;2965;42.640;23.370;2024-01-30T00:41:49;96466.13;;;0.17;100.00
5879;BME280;2965;42.640;23.370;2024-01-30T00:44:15;96467.47;;;0.07;100.00
5879;BME280;2965;42.640;23.370;2024-01-30T00:46:40;96466.28;;;0.14;100.00
5879;BME280;2965;42.640;23.370;2024-01-30T00:49:05;96459.88;;;0.04;100.00
5879;BME280;2965;42.640;23.370;2024-01-30T00:51:31;96460.47;;;-0.08;100.00
5879;BME280;2965;42.640;23.370;2024-01-30T00:53:56;96467.75;;;0.01;100.00
5879;BME280;2965;42.640;23.370;2024-01-30T00:56:21;96461.34;;;0.10;100.00
5879;BME280;2965;42.640;23.370;2024-01-30T00:58:47;96466.63;;;0.07;100.00
5879;BME280;2965;42.640;23.370;2024-01-30T01:01:12;96456.63;;;0.01;100.00
5879;BME280;2965;42.640;23.370;2024-01-30T01:03:38;96454.94;;;-0.01;100.00
5879;BME280;2965;42.640;23.370;2024-01-30T01:06:05;96457.94;;;0.09;100.00
5879;BME280;2965;42.640;23.370;2024-01-30T01:08:31;96450.81;;;-0.03;100.00
5879;BME280;2965;42.640;23.370;2024-01-30T01:10:56;96449.41;;;-0.10;100.00
5879;BME280;2965;42.640;23.370;2024-01-30T01:13:22;96452.00;;;-0.29;100.00
5879;BME280;2965;42.640;23.370;2024-01-30T01:15:47;96448.09;;;-0.38;100.00
5879;BME280;2965;42.640;23.370;2024-01-30T01:18:12;96443.44;;;-0.30;100.00
5879;BME280;2965;42.640;23.370;2024-01-30T01:20:38;96448.47;;;-0.27;100.00
5879;BME280;2965;42.640;23.370;2024-01-30T01:23:03;96453.78;;;-0.31;100.00
5879;BME280;2965;42.640;23.370;2024-01-30T01:25:29;96453.03;;;-0.33;100.00
5879;BME280;2965;42.640;23.370;2024-01-30T01:27:54;96452.88;;;-0.49;100.00
5879;BME280;2965;42.640;23.370;2024-01-30T01:30:19;96447.00;;;-0.51;100.00
5879;BME280;2965;42.640;23.370;2024-01-30T01:32:48;96457.06;;;-0.65;100.00
5879;BME280;2965;42.640;23.370;2024-01-30T01:35:21;96449.41;;;-0.67;100.00
5879;BME280;2965;42.640;23.370;2024-01-30T01:37:48;96455.59;;;-0.71;100.00
5879;BME280;2965;42.640;23.370;2024-01-30T01:40:20;96455.44;;;-1.07;100.00
5879;BME280;2965;42.640;23.370;2024-01-30T01:42:45;96456.75;;;-0.97;100.00
5879;BME280;2965;42.640;23.370;2024-01-30T01:45:10;96459.84;;;-1.09;100.00
5879;BME280;2965;42.640;23.370;2024-01-30T01:47:36;96462.13;;;-1.03;100.00
5879;BME280;2965;42.640;23.370;2024-01-30T01:50:02;96461.28;;;-1.04;100.00
5879;BME280;2965;42.640;23.370;2024-01-30T01:52:28;96456.16;;;-1.04;100.00
5879;BME280;2965;42.640;23.370;2024-01-30T01:54:54;96450.94;;;-1.02;100.00
5879;BME280;2965;42.640;23.370;2024-01-30T01:57:19;96452.22;;;-0.92;100.00
5879;BME280;2965;42.640;23.370;2024-01-30T01:59:45;96461.59;;;-0.91;100.00
5879;BME280;2965;42.640;23.370;2024-01-30T02:02:11;96461.31;;;-0.85;100.00
5879;BME280;2965;42.640;23.370;2024-01-30T02:04:38;96471.16;;;-0.74;100.00
5879;BME280;2965;42.640;23.370;2024-01-30T02:07:04;96471.78;;;-0.69;100.00
5879;BME280;2965;42.640;23.370;2024-01-30T02:09:30;96469.28;;;-0.70;100.00
5879;BME280;2965;42.640;23.370;2024-01-30T02:11:55;96464.16;;;-0.70;100.00
5879;BME280;2965;42.640;23.370;2024-01-30T02:14:20;96471.91;;;-0.72;100.00
5879;BME280;2965;42.640;23.370;2024-01-30T02:16:46;96469.13;;;-0.67;100.00
5879;BME280;2965;42.640;23.370;2024-01-30T02:19:11;96465.41;;;-0.60;100.00
5879;BME280;2965;42.640;23.370;2024-01-30T02:21:37;96465.41;;;-0.60;100.00
5879;BME280;2965;42.640;23.370;2024-01-30T02:24:03;96458.34;;;-0.76;100.00
5879;BME280;2965;42.640;23.370;2024-01-30T02:26:28;96467.34;;;-0.65;100.00
5879;BME280;2965;42.640;23.370;2024-01-30T02:28:54;96465.28;;;-0.57;100.00
5879;BME280;2965;42.640;23.370;2024-01-30T02:31:19;96454.84;;;-0.54;100.00
5879;BME280;2965;42.640;23.370;2024-01-30T02:33:44;96462.41;;;-0.51;100.00
5879;BME280;2965;42.640;23.370;2024-01-30T02:36:10;96459.44;;;-0.42;100.00
5879;BME280;2965;42.640;23.370;2024-01-30T02:38:35;96464.28;;;-0.36;100.00
5879;BME280;2965;42.640;23.370;2024-01-30T02:41:01;96460.41;;;-0.26;100.00
5879;BME280;2965;42.640;23.370;2024-01-30T02:43:26;96460.22;;;-0.21;100.00
5879;BME280;2965;42.640;23.370;2024-01-30T02:45:51;96459.78;;;-0.12;100.00
5879;BME280;2965;42.640;23.370;2024-01-30T02:48:17;96458.53;;;-0.03;100.00
5879;BME280;2965;42.640;23.370;2024-01-30T02:50:42;96464.16;;;0.05;100.00
5879;BME280;2965;42.640;23.370;2024-01-30T02:53:08;96460.53;;;0.09;100.00
5879;BME280;2965;42.640;23.370;2024-01-30T02:55:33;96457.19;;;0.07;100.00
5879;BME280;2965;42.640;23.370;2024-01-30T02:57:58;96455.78;;;0.19;100.00
5879;BME280;2965;42.640;23.370;2024-01-30T03:00:24;96459.38;;;0.15;100.00
5879;BME280;2965;42.640;23.370;2024-01-30T03:02:49;96456.00;;;0.14;100.00
5879;BME280;2965;42.640;23.370;2024-01-30T03:05:15;96452.16;;;0.04;100.00
5879;BME280;2965;42.640;23.370;2024-01-30T03:07:40;96452.47;;;-0.02;100.00
5879;BME280;2965;42.640;23.370;2024-01-30T03:10:06;96462.06;;;-0.06;100.00
5879;BME280;2965;42.640;23.370;2024-01-30T03:12:32;96450.09;;;-0.07;100.00
5879;BME280;2965;42.640;23.370;2024-01-30T03:14:58;96448.16;;;-0.02;100.00
5879;BME280;2965;42.640;23.370;2024-01-30T03:17:23;96455.94;;;-0.03;100.00
5879;BME280;2965;42.640;23.370;2024-01-30T03:19:49;96455.81;;;0.00;100.00
5879;BME280;2965;42.640;23.370;2024-01-30T03:22:15;96461.63;;;0.04;100.00
5879;BME280;2965;42.640;23.370;2024-01-30T03:24:40;96451.75;;;-0.06;100.00
5879;BME280;2965;42.640;23.370;2024-01-30T03:27:05;96444.00;;;-0.04;100.00
5879;BME280;2965;42.640;23.370;2024-01-30T03:29:31;96455.50;;;0.06;100.00
5879;BME280;2965;42.640;23.370;2024-01-30T05:05:04;96470.00;;;-0.10;100.00
5879;BME280;2965;42.640;23.370;2024-01-30T05:07:29;96466.78;;;-0.15;100.00
5879;BME280;2965;42.640;23.370;2024-01-30T05:09:55;96465.97;;;-0.16;100.00
5879;BME280;2965;42.640;23.370;2024-01-30T05:12:20;96465.28;;;-0.19;100.00
5879;BME280;2965;42.640;23.370;2024-01-30T05:14:45;96474.38;;;-0.31;100.00
5879;BME280;2965;42.640;23.370;2024-01-30T05:17:11;96465.69;;;-0.29;100.00
5879;BME280;2965;42.640;23.370;2024-01-30T05:19:38;96466.13;;;-0.38;100.00
5879;BME280;2965;42.640;23.370;2024-01-30T05:22:04;96469.66;;;-0.40;100.00
5879;BME280;2965;42.640;23.370;2024-01-30T05:24:29;96475.00;;;-0.45;100.00
5879;BME280;2965;42.640;23.370;2024-01-30T05:26:55;96463.19;;;-0.49;100.00
5879;BME280;2965;42.640;23.370;2024-01-30T05:29:20;96474.38;;;-0.50;100.00
5879;BME280;2965;42.640;23.370;2024-01-30T05:31:46;96480.56;;;-0.54;100.00
5879;BME280;2965;42.640;23.370;2024-01-30T05:34:11;96478.47;;;-0.65;100.00
5879;BME280;2965;42.640;23.370;2024-01-30T05:36:36;96481.13;;;-0.66;100.00
5879;BME280;2965;42.640;23.370;2024-01-30T05:39:02;96480.44;;;-0.71;100.00
5879;BME280;2965;42.640;23.370;2024-01-30T05:41:27;96478.16;;;-0.78;100.00
5879;BME280;2965;42.640;23.370;2024-01-30T05:43:53;96481.75;;;-0.82;100.00
5879;BME280;2965;42.640;23.370;2024-01-30T05:46:18;96481.75;;;-0.82;100.00
5879;BME280;2965;42.640;23.370;2024-01-30T05:48:44;96485.13;;;-0.80;100.00
5879;BME280;2965;42.640;23.370;2024-01-30T05:51:09;96481.56;;;-0.77;100.00
5879;BME280;2965;42.640;23.370;2024-01-30T05:53:34;96486.72;;;-0.97;100.00
5879;BME280;2965;42.640;23.370;2024-01-30T05:56:01;96483.34;;;-1.18;100.00
5879;BME280;2965;42.640;23.370;2024-01-30T05:58:27;96477.59;;;-1.25;100.00
5879;BME280;2965;42.640;23.370;2024-01-30T06:00:53;96477.75;;;-1.28;100.00
5879;BME280;2965;42.640;23.370;2024-01-30T06:03:18;96480.38;;;-1.30;100.00
5879;BME280;2965;42.640;23.370;2024-01-30T06:05:44;96480.75;;;-1.39;100.00
5879;BME280;2965;42.640;23.370;2024-01-30T06:08:09;96470.47;;;-1.39;100.00
5879;BME280;2965;42.640;23.370;2024-01-30T06:10:34;96476.31;;;-1.35;100.00
5879;BME280;2965;42.640;23.370;2024-01-30T06:13:00;96486.13;;;-1.24;100.00
5879;BME280;2965;42.640;23.370;2024-01-30T06:15:25;96479.97;;;-1.20;100.00
5879;BME280;2965;42.640;23.370;2024-01-30T06:17:51;96479.88;;;-1.17;100.00
5879;BME280;2965;42.640;23.370;2024-01-30T06:20:17;96482.50;;;-1.19;100.00
5879;BME280;2965;42.640;23.370;2024-01-30T06:22:42;96480.78;;;-1.18;100.00
5879;BME280;2965;42.640;23.370;2024-01-30T06:25:08;96482.31;;;-1.14;100.00
5879;BME280;2965;42.640;23.370;2024-01-30T06:27:33;96484.88;;;-1.14;100.00
5879;BME280;2965;42.640;23.370;2024-01-30T06:29:59;96477.03;;;-1.11;100.00
5879;BME280;2965;42.640;23.370;2024-01-30T06:32:24;96483.97;;;-1.13;100.00
5879;BME280;2965;42.640;23.370;2024-01-30T06:34:50;96479.59;;;-1.11;100.00
5879;BME280;2965;42.640;23.370;2024-01-30T06:37:15;96484.34;;;-1.02;100.00
5879;BME280;2965;42.640;23.370;2024-01-30T06:39:41;96487.81;;;-1.03;100.00
5879;BME280;2965;42.640;23.370;2024-01-30T06:42:06;96484.22;;;-0.99;100.00
5879;BME280;2965;42.640;23.370;2024-01-30T06:44:31;96488.91;;;-1.09;100.00
5879;BME280;2965;42.640;23.370;2024-01-30T06:46:57;96489.63;;;-1.05;100.00
5879;BME280;2965;42.640;23.370;2024-01-30T06:49:22;96488.66;;;-1.03;100.00
5879;BME280;2965;42.640;23.370;2024-01-30T06:51:48;96495.22;;;-0.95;100.00
5879;BME280;2965;42.640;23.370;2024-01-30T06:54:13;96496.63;;;-0.88;100.00
5879;BME280;2965;42.640;23.370;2024-01-30T06:56:39;96489.13;;;-0.93;100.00
5879;BME280;2965;42.640;23.370;2024-01-30T06:59:04;96494.88;;;-0.88;100.00
5879;BME280;2965;42.640;23.370;2024-01-30T07:01:30;96500.91;;;-0.89;96.57
5879;BME280;2965;42.640;23.370;2024-01-30T07:03:55;96500.91;;;-0.89;95.83
5879;BME280;2965;42.640;23.370;2024-01-30T07:06:21;96503.97;;;-0.81;94.50
5879;BME280;2965;42.640;23.370;2024-01-30T07:08:47;96499.16;;;-0.68;95.34
5879;BME280;2965;42.640;23.370;2024-01-30T07:11:21;96497.00;;;-0.58;95.01
5879;BME280;2965;42.640;23.370;2024-01-30T07:13:47;96497.50;;;-0.50;93.84
5879;BME280;2965;42.640;23.370;2024-01-30T07:16:14;96499.97;;;-0.47;92.57
5879;BME280;2965;42.640;23.370;2024-01-30T07:18:39;96498.91;;;-0.43;90.64
5879;BME280;2965;42.640;23.370;2024-01-30T07:21:05;96491.25;;;-0.44;89.04
5879;BME280;2965;42.640;23.370;2024-01-30T07:23:30;96496.84;;;-0.35;89.11
5879;BME280;2965;42.640;23.370;2024-01-30T07:25:56;96502.88;;;-0.36;89.62
5879;BME280;2965;42.640;23.370;2024-01-30T07:28:21;96498.63;;;-0.37;89.24
5879;BME280;2965;42.640;23.370;2024-01-30T07:30:46;96502.66;;;-0.31;89.20
5879;BME280;2965;42.640;23.370;2024-01-30T07:33:13;96501.03;;;-0.13;92.30
5879;BME280;2965;42.640;23.370;2024-01-30T07:35:39;96499.81;;;-0.06;88.17
5879;BME280;2965;42.640;23.370;2024-01-30T07:38:04;96492.66;;;-0.18;87.48
5879;BME280;2965;42.640;23.370;2024-01-30T07:40:29;96492.53;;;-0.15;90.12
5879;BME280;2965;42.640;23.370;2024-01-30T07:42:55;96493.34;;;0.04;88.17
5879;BME280;2965;42.640;23.370;2024-01-30T07:45:20;96493.91;;;0.11;85.79
5879;BME280;2965;42.640;23.370;2024-01-30T07:47:51;96490.53;;;0.09;86.19
5879;BME280;2965;42.640;23.370;2024-01-30T07:50:17;96492.22;;;-0.09;86.29
5879;BME280;2965;42.640;23.370;2024-01-30T07:52:43;96492.09;;;-0.06;86.32
5879;BME280;2965;42.640;23.370;2024-01-30T07:55:27;96494.53;;;-0.03;86.60
5879;BME280;2965;42.640;23.370;2024-01-30T07:58:11;96494.41;;;0.00;87.67
5879;BME280;2965;42.640;23.370;2024-01-30T08:00:36;96491.66;;;0.03;88.33
5879;BME280;2965;42.640;23.370;2024-01-30T08:03:02;96493.34;;;0.04;90.30
5879;BME280;2965;42.640;23.370;2024-01-30T08:05:28;96486.72;;;0.17;91.66
5879;BME280;2965;42.640;23.370;2024-01-30T08:07:53;96484.31;;;0.14;91.79
5879;BME280;2965;42.640;23.370;2024-01-30T08:10:19;96478.84;;;0.20;90.79
5879;BME280;2965;42.640;23.370;2024-01-30T08:12:44;96493.28;;;0.42;88.54
5879;BME280;2965;42.640;23.370;2024-01-30T08:15:11;96485.72;;;0.56;87.08
5879;BME280;2965;42.640;23.370;2024-01-30T08:17:37;96489.13;;;0.74;86.66
5879;BME280;2965;42.640;23.370;2024-01-30T08:20:03;96492.63;;;0.73;82.97
5879;BME280;2965;42.640;23.370;2024-01-30T08:22:30;96493.56;;;0.89;83.69
5879;BME280;2965;42.640;23.370;2024-01-30T08:24:55;96489.22;;;0.90;82.27
5879;BME280;2965;42.640;23.370;2024-01-30T08:27:20;96489.59;;;0.99;82.39
5879;BME280;2965;42.640;23.370;2024-01-30T08:29:46;96487.84;;;1.17;83.95
5879;BME280;2965;42.640;23.370;2024-01-30T08:32:11;96491.44;;;1.31;80.84
5879;BME280;2965;42.640;23.370;2024-01-30T08:34:37;96489.19;;;1.24;81.32
5879;BME280;2965;42.640;23.370;2024-01-30T08:37:02;96484.19;;;1.21;82.17
5879;BME280;2965;42.640;23.370;2024-01-30T08:39:28;96491.44;;;1.31;79.09
5879;BME280;2965;42.640;23.370;2024-01-30T08:41:54;96499.59;;;1.56;78.27
5879;BME280;2965;42.640;23.370;2024-01-30T08:44:19;96501.69;;;1.65;77.46
5879;BME280;2965;42.640;23.370;2024-01-30T08:46:44;96507.38;;;1.39;76.39
5879;BME280;2965;42.640;23.370;2024-01-30T08:49:11;96502.56;;;1.48;77.81
5879;BME280;2965;42.640;23.370;2024-01-30T08:51:39;96503.94;;;1.71;77.06
5879;BME280;2965;42.640;23.370;2024-01-30T08:54:04;96497.53;;;1.79;75.56
5879;BME280;2965;42.640;23.370;2024-01-30T08:56:29;96499.09;;;1.65;77.46
5879;BME280;2965;42.640;23.370;2024-01-30T08:58:55;96500.13;;;1.79;76.49
5879;BME280;2965;42.640;23.370;2024-01-30T09:01:20;96509.47;;;2.13;76.59
5879;BME280;2965;42.640;23.370;2024-01-30T09:03:46;96501.97;;;2.08;75.71
5879;BME280;2965;42.640;23.370;2024-01-30T09:06:12;96500.25;;;2.55;77.14
5879;BME280;2965;42.640;23.370;2024-01-30T09:08:38;96500.72;;;2.77;72.71
5879;BME280;2965;42.640;23.370;2024-01-30T09:11:11;96500.97;;;2.26;74.03
5879;BME280;2965;42.640;23.370;2024-01-30T09:13:37;96494.94;;;2.58;75.95
5879;BME280;2965;42.640;23.370;2024-01-30T09:16:03;96487.25;;;2.56;72.09
5879;BME280;2965;42.640;23.370;2024-01-30T09:18:28;96492.09;;;2.62;73.45
5879;BME280;2965;42.640;23.370;2024-01-30T09:20:54;96480.00;;;2.63;73.62
5879;BME280;2965;42.640;23.370;2024-01-30T09:23:19;96487.59;;;2.50;71.74
5879;BME280;2965;42.640;23.370;2024-01-30T09:25:45;96486.72;;;2.65;72.53
5879;BME280;2965;42.640;23.370;2024-01-30T09:28:10;96482.59;;;3.07;73.20
5879;BME280;2965;42.640;23.370;2024-01-30T09:30:36;96486.88;;;3.79;70.54
5879;BME280;2965;42.640;23.370;2024-01-30T09:33:01;96473.22;;;3.77;63.27
5879;BME280;2965;42.640;23.370;2024-01-30T09:35:26;96479.88;;;3.82;62.68
5879;BME280;2965;42.640;23.370;2024-01-30T09:37:52;96485.28;;;4.33;61.33
5879;BME280;2965;42.640;23.370;2024-01-30T09:40:18;96484.72;;;4.42;60.83
5879;BME280;2965;42.640;23.370;2024-01-30T09:42:46;96474.69;;;3.53;60.63
5879;BME280;2965;42.640;23.370;2024-01-30T09:45:13;96480.75;;;3.09;63.07
5879;BME280;2965;42.640;23.370;2024-01-30T09:47:43;96469.88;;;2.74;67.86
5879;BME280;2965;42.640;23.370;2024-01-30T09:50:13;96474.63;;;2.96;66.86
5879;BME280;2965;42.640;23.370;2024-01-30T09:52:39;96471.00;;;3.57;66.40
5879;BME280;2965;42.640;23.370;2024-01-30T09:55:06;96475.22;;;3.15;63.67
5879;BME280;2965;42.640;23.370;2024-01-30T09:57:32;96473.50;;;2.86;64.46
5879;BME280;2965;42.640;23.370;2024-01-30T09:59:57;96473.28;;;2.44;67.29
5879;BME280;2965;42.640;23.370;2024-01-30T10:02:23;96477.47;;;2.15;68.33
5879;BME280;2965;42.640;23.370;2024-01-30T10:04:49;96467.41;;;2.57;66.39
5879;BME280;2965;42.640;23.370;2024-01-30T10:07:16;96464.59;;;2.61;68.12
5879;BME280;2965;42.640;23.370;2024-01-30T10:09:41;96457.09;;;1.95;74.25
5879;BME280;2965;42.640;23.370;2024-01-30T10:12:07;96456.59;;;1.88;76.75
5879;BME280;2965;42.640;23.370;2024-01-30T10:14:33;96458.88;;;2.24;77.26
5879;BME280;2965;42.640;23.370;2024-01-30T10:17:01;96459.72;;;2.41;76.02
5879;BME280;2965;42.640;23.370;2024-01-30T10:19:26;96460.63;;;2.40;74.30
5879;BME280;2965;42.640;23.370;2024-01-30T10:21:52;96466.41;;;2.13;74.77
5879;BME280;2965;42.640;23.370;2024-01-30T10:24:18;96455.50;;;2.08;75.29
5879;BME280;2965;42.640;23.370;2024-01-30T10:26:44;96463.00;;;1.97;74.17
5879;BME280;2965;42.640;23.370;2024-01-30T10:29:09;96461.50;;;1.93;75.19
5879;BME280;2965;42.640;23.370;2024-01-30T10:31:35;96462.00;;;1.99;76.15
5879;BME280;2965;42.640;23.370;2024-01-30T10:34:00;96466.06;;;1.88;78.17
5879;BME280;2965;42.640;23.370;2024-01-30T10:36:28;96469.06;;;1.64;78.67
5879;BME280;2965;42.640;23.370;2024-01-30T10:38:59;96466.69;;;1.44;81.70
5879;BME280;2965;42.640;23.370;2024-01-30T10:41:31;96456.81;;;1.52;80.56
5879;BME280;2965;42.640;23.370;2024-01-30T10:44:08;96459.22;;;1.55;79.73
5879;BME280;2965;42.640;23.370;2024-01-30T10:46:35;96460.84;;;1.73;80.14
5879;BME280;2965;42.640;23.370;2024-01-30T10:49:02;96453.50;;;1.97;80.04
5879;BME280;2965;42.640;23.370;2024-01-30T10:51:31;96451.38;;;2.36;79.45
5879;BME280;2965;42.640;23.370;2024-01-30T10:53:56;96450.97;;;2.27;77.59
5879;BME280;2965;42.640;23.370;2024-01-30T10:56:22;96457.22;;;2.08;75.72
5879;BME280;2965;42.640;23.370;2024-01-30T10:58:52;96445.50;;;2.02;77.83
5879;BME280;2965;42.640;23.370;2024-01-30T11:01:19;96433.47;;;2.17;79.00
5879;BME280;2965;42.640;23.370;2024-01-30T11:03:50;96439.72;;;2.28;79.67
5879;BME280;2965;42.640;23.370;2024-01-30T11:06:16;96432.13;;;2.25;76.19
5879;BME280;2965;42.640;23.370;2024-01-30T11:08:44;96429.59;;;1.94;78.57
5879;BME280;2965;42.640;23.370;2024-01-30T11:11:10;96431.47;;;2.38;77.78
5879;BME280;2965;42.640;23.370;2024-01-30T11:13:36;96427.91;;;2.99;76.13
5879;BME280;2965;42.640;23.370;2024-01-30T11:16:02;96428.38;;;3.63;72.19
5879;BME280;2965;42.640;23.370;2024-01-30T11:18:32;96420.56;;;4.18;67.95
5879;BME280;2965;42.640;23.370;2024-01-30T11:20:59;96420.44;;;4.47;62.96
5879;BME280;2965;42.640;23.370;2024-01-30T11:23:27;96432.88;;;4.81;63.33
5879;BME280;2965;42.640;23.370;2024-01-30T11:25:53;96424.91;;;5.36;61.45
5879;BME280;2965;42.640;23.370;2024-01-30T11:28:21;96432.28;;;5.42;57.99
5879;BME280;2965;42.640;23.370;2024-01-30T11:30:47;96423.47;;;5.06;57.75
5879;BME280;2965;42.640;23.370;2024-01-30T11:33:27;96418.56;;;4.89;61.26
5879;BME280;2965;42.640;23.370;2024-01-30T11:35:53;96420.84;;;4.80;61.13
5879;BME280;2965;42.640;23.370;2024-01-30T11:38:18;96420.03;;;4.93;61.01
5879;BME280;2965;42.640;23.370;2024-01-30T11:40:44;96415.88;;;5.28;60.08
5879;BME280;2965;42.640;23.370;2024-01-30T11:43:09;96414.75;;;5.95;58.75
5879;BME280;2965;42.640;23.370;2024-01-30T11:45:36;96417.25;;;5.83;59.86
5879;BME280;2965;42.640;23.370;2024-01-30T11:48:02;96418.31;;;6.42;57.87
5879;BME280;2965;42.640;23.370;2024-01-30T11:50:34;96415.94;;;5.65;56.15
5879;BME280;2965;42.640;23.370;2024-01-30T11:53:00;96411.22;;;5.34;58.13
5879;BME280;2965;42.640;23.370;2024-01-30T11:55:29;96412.19;;;4.54;60.08
5879;BME280;2965;42.640;23.370;2024-01-30T11:57:58;96403.88;;;3.54;64.61
5879;BME280;2965;42.640;23.370;2024-01-30T12:00:24;96408.16;;;3.41;66.77
5879;BME280;2965;42.640;23.370;2024-01-30T12:02:51;96393.75;;;2.94;68.82
5879;BME280;2965;42.640;23.370;2024-01-30T12:05:19;96397.25;;;3.64;68.71
5879;BME280;2965;42.640;23.370;2024-01-30T12:07:45;96390.75;;;3.98;66.39
5879;BME280;2965;42.640;23.370;2024-01-30T12:10:12;96390.25;;;4.86;65.15
5879;BME280;2965;42.640;23.370;2024-01-30T12:12:39;96379.72;;;5.88;59.63
5879;BME280;2965;42.640;23.370;2024-01-30T12:15:06;96377.16;;;6.36;54.81
5879;BME280;2965;42.640;23.370;2024-01-30T12:17:33;96371.94;;;6.24;54.88
5879;BME280;2965;42.640;23.370;2024-01-30T12:20:15;96372.09;;;6.69;55.57
5879;BME280;2965;42.640;23.370;2024-01-30T12:22:41;96368.38;;;7.29;50.41
5879;BME280;2965;42.640;23.370;2024-01-30T12:25:11;96364.72;;;7.10;50.31
5879;BME280;2965;42.640;23.370;2024-01-30T12:27:37;96357.72;;;7.32;51.24
5879;BME280;2965;42.640;23.370;2024-01-30T12:30:07;96350.16;;;7.41;51.66
5879;BME280;2965;42.640;23.370;2024-01-30T12:32:35;96350.59;;;7.68;49.49
5879;BME280;2965;42.640;23.370;2024-01-30T12:35:01;96347.63;;;6.83;50.12
5879;BME280;2965;42.640;23.370;2024-01-30T12:37:27;96339.00;;;6.94;52.05
5879;BME280;2965;42.640;23.370;2024-01-30T12:39:52;96339.97;;;7.49;51.08
5879;BME280;2965;42.640;23.370;2024-01-30T12:42:21;96345.72;;;8.18;47.07
5879;BME280;2965;42.640;23.370;2024-01-30T12:44:48;96355.16;;;8.42;47.17
5879;BME280;2965;42.640;23.370;2024-01-30T12:47:13;96335.44;;;8.49;49.06
5879;BME280;2965;42.640;23.370;2024-01-30T12:49:42;96339.09;;;8.14;46.63
5879;BME280;2965;42.640;23.370;2024-01-30T12:52:08;96336.00;;;8.20;47.50
5879;BME280;2965;42.640;23.370;2024-01-30T12:54:33;96335.00;;;8.44;45.91
5879;BME280;2965;42.640;23.370;2024-01-30T12:56:59;96335.50;;;8.38;45.42
5879;BME280;2965;42.640;23.370;2024-01-30T12:59:24;96333.31;;;7.67;46.44
5879;BME280;2965;42.640;23.370;2024-01-30T13:01:50;96331.09;;;8.06;46.77
5879;BME280;2965;42.640;23.370;2024-01-30T13:04:15;96323.44;;;8.25;46.77
5879;BME280;2965;42.640;23.370;2024-01-30T13:06:41;96324.38;;;8.24;46.34
5879;BME280;2965;42.640;23.370;2024-01-30T13:09:07;96319.38;;;7.57;47.74
5879;BME280;2965;42.640;23.370;2024-01-30T13:11:32;96319.16;;;8.77;45.96
5879;BME280;2965;42.640;23.370;2024-01-30T13:13:58;96309.38;;;9.91;42.75
5879;BME280;2965;42.640;23.370;2024-01-30T13:16:23;96318.66;;;9.45;42.46
5879;BME280;2965;42.640;23.370;2024-01-30T13:18:49;96322.50;;;9.50;43.33
5879;BME280;2965;42.640;23.370;2024-01-30T13:21:15;96313.47;;;9.64;42.77
5879;BME280;2965;42.640;23.370;2024-01-30T13:23:40;96303.91;;;9.84;43.02
5879;BME280;2965;42.640;23.370;2024-01-30T13:26:06;96302.84;;;10.25;42.12
5879;BME280;2965;42.640;23.370;2024-01-30T13:28:32;96307.75;;;10.09;40.87
5879;BME280;2965;42.640;23.370;2024-01-30T13:30:57;96300.22;;;10.06;41.41
5879;BME280;2965;42.640;23.370;2024-01-30T13:33:23;96298.94;;;9.91;40.60
5879;BME280;2965;42.640;23.370;2024-01-30T13:35:48;96296.63;;;9.88;42.09
5879;BME280;2965;42.640;23.370;2024-01-30T13:38:14;96300.09;;;10.37;40.85
5879;BME280;2965;42.640;23.370;2024-01-30T13:40:40;96305.03;;;10.40;40.45
5879;BME280;2965;42.640;23.370;2024-01-30T13:43:11;96304.81;;;8.30;44.88
5879;BME280;2965;42.640;23.370;2024-01-30T13:45:37;96306.97;;;7.27;48.46
5879;BME280;2965;42.640;23.370;2024-01-30T13:48:02;96315.84;;;7.24;49.17
5879;BME280;2965;42.640;23.370;2024-01-30T13:50:28;96317.72;;;7.45;51.01
5879;BME280;2965;42.640;23.370;2024-01-30T13:52:54;96308.75;;;6.93;51.22
5879;BME280;2965;42.640;23.370;2024-01-30T13:55:19;96319.34;;;6.56;52.44
5879;BME280;2965;42.640;23.370;2024-01-30T13:57:44;96318.94;;;5.66;55.57
5879;BME280;2965;42.640;23.370;2024-01-30T14:00:10;96321.28;;;6.06;56.01
5879;BME280;2965;42.640;23.370;2024-01-30T14:02:36;96311.75;;;6.06;54.36
5879;BME280;2965;42.640;23.370;2024-01-30T14:05:01;96315.94;;;5.83;54.08
5879;BME280;2965;42.640;23.370;2024-01-30T14:07:27;96319.59;;;5.57;55.67
5879;BME280;2965;42.640;23.370;2024-01-30T14:09:53;96313.06;;;5.75;56.30
5879;BME280;2965;42.640;23.370;2024-01-30T14:12:18;96313.31;;;5.72;57.16
5879;BME280;2965;42.640;23.370;2024-01-30T14:14:43;96308.69;;;5.15;58.48
5879;BME280;2965;42.640;23.370;2024-01-30T14:17:09;96313.28;;;4.99;59.79
5879;BME280;2965;42.640;23.370;2024-01-30T14:19:35;96309.22;;;4.82;60.81
5879;BME280;2965;42.640;23.370;2024-01-30T14:22:01;96312.00;;;5.17;61.38
5879;BME280;2965;42.640;23.370;2024-01-30T14:24:26;96308.50;;;4.93;60.93
5879;BME280;2965;42.640;23.370;2024-01-30T14:26:52;96313.53;;;5.32;60.75
5879;BME280;2965;42.640;23.370;2024-01-30T14:29:17;96315.09;;;5.96;58.57
5879;BME280;2965;42.640;23.370;2024-01-30T14:31:43;96314.88;;;5.25;59.53
5879;BME280;2965;42.640;23.370;2024-01-30T14:34:08;96308.41;;;5.80;60.10
5879;BME280;2965;42.640;23.370;2024-01-30T14:36:36;96314.41;;;6.64;56.29
5879;BME280;2965;42.640;23.370;2024-01-30T14:39:02;96311.69;;;6.30;53.78